Terminal Aerodrome Forecast
Issued by NWS

Current Version | Previous Version | Graphics & Text | Print | Product List | Glossary On
Versions: 1 2 3 4 5 6 7 8 9 10 11 12 13 14 15 16 17 18 19 20 21 22 23 24 25 26 27 28
000
FTUS41 KRLX 280541
TAFCKB
TAF
KCKB 280541Z 2806/2906 VRB03KT 6SM BR VCSH OVC100
     FM281000 VRB03KT 4SM SHRA BR OVC022
     FM281200 VRB03KT 4SM SHRA BR OVC013
     FM281700 19007KT P6SM VCSH BKN015
     FM282000 23007KT 3SM SHRA VCTS BKN018CB
     FM282300 VRB03KT P6SM VCSH BKN022
     FM290500 00000KT P6SM BKN030=

USA.gov is the U.S. government's official web portal to all federal, state and local government web resources and services.